createdAt,value
2019-01-15T00:00:53.830Z,1012.11
2019-01-15T00:01:53.790Z,1012.10
2019-01-15T00:02:53.756Z,1012.12
2019-01-15T00:03:53.715Z,1012.13
2019-01-15T00:04:53.676Z,1012.11
2019-01-15T00:05:53.633Z,1012.07
2019-01-15T00:06:53.607Z,1012.06
2019-01-15T00:07:53.560Z,1012.05
2019-01-15T00:08:53.519Z,1012.03
2019-01-15T00:09:53.480Z,1012.09
2019-01-15T00:10:53.438Z,1012.08
2019-01-15T00:11:53.405Z,1012.05
2019-01-15T00:12:53.360Z,1012.09
2019-01-15T00:13:53.329Z,1012.05
2019-01-15T00:14:53.291Z,1012.04
2019-01-15T00:16:00.916Z,1012.04
2019-01-15T00:16:53.199Z,1012.08
2019-01-15T00:17:53.173Z,1012.11
2019-01-15T00:18:53.140Z,1012.10
2019-01-15T00:19:53.093Z,1012.08
2019-01-15T00:20:53.052Z,1012.11
2019-01-15T00:21:53.016Z,1012.13
2019-01-15T00:22:52.972Z,1012.09
2019-01-15T00:23:52.938Z,1012.07
2019-01-15T00:24:52.896Z,1012.08
2019-01-15T00:25:52.868Z,1012.07
2019-01-15T00:26:52.811Z,1012.07
2019-01-15T00:27:52.793Z,1012.07
2019-01-15T00:28:52.746Z,1012.09
2019-01-15T00:29:52.698Z,1012.07
2019-01-15T00:30:52.667Z,1012.05
2019-01-15T00:31:52.624Z,1012.07
2019-01-15T00:32:52.593Z,1012.06
2019-01-15T00:33:52.558Z,1012.07
2019-01-15T00:34:52.507Z,1012.04
2019-01-15T00:35:52.467Z,1012.09
2019-01-15T00:36:52.445Z,1012.06
2019-01-15T00:37:52.392Z,1012.10
2019-01-15T00:38:52.363Z,1012.15
2019-01-15T00:39:52.329Z,1012.13
2019-01-15T00:40:52.287Z,1012.12
2019-01-15T00:41:52.244Z,1012.08
2019-01-15T00:42:52.207Z,1012.10
2019-01-15T00:43:52.173Z,1012.10
2019-01-15T00:44:52.124Z,1012.11
2019-01-15T00:45:52.085Z,1012.14
2019-01-15T00:46:52.048Z,1012.18
2019-01-15T00:47:52.014Z,1012.25
2019-01-15T00:48:51.974Z,1012.25
2019-01-15T00:49:51.933Z,1012.30
2019-01-15T00:50:51.893Z,1012.29
2019-01-15T00:51:51.864Z,1012.32
2019-01-15T00:52:51.819Z,1012.29
2019-01-15T00:53:51.792Z,1012.27
2019-01-15T00:54:51.748Z,1012.25
2019-01-15T00:55:51.703Z,1012.24
2019-01-15T00:56:51.669Z,1012.26
2019-01-15T00:57:51.623Z,1012.23
2019-01-15T00:58:51.608Z,1012.25
2019-01-15T00:59:51.545Z,1012.27
2019-01-15T01:00:51.518Z,1012.27
2019-01-15T01:01:51.469Z,1012.29
2019-01-15T01:02:51.438Z,1012.27
2019-01-15T01:03:51.394Z,1012.23
2019-01-15T01:04:51.358Z,1012.22
2019-01-15T01:05:51.318Z,1012.21
2019-01-15T01:06:51.279Z,1012.20
2019-01-15T01:07:51.234Z,1012.15
2019-01-15T01:08:51.203Z,1012.20
2019-01-15T01:09:51.175Z,1012.17
2019-01-15T01:10:51.134Z,1012.18
2019-01-15T01:11:51.085Z,1012.15
2019-01-15T01:12:51.041Z,1012.17
2019-01-15T01:13:51.021Z,1012.17
2019-01-15T01:14:50.966Z,1012.20
2019-01-15T01:15:50.936Z,1012.18
2019-01-15T01:16:50.891Z,1012.19
2019-01-15T01:17:50.856Z,1012.15
2019-01-15T01:18:50.810Z,1012.15
2019-01-15T01:19:50.785Z,1012.18
2019-01-15T01:20:50.741Z,1012.20
2019-01-15T01:21:50.701Z,1012.21
2019-01-15T01:22:50.657Z,1012.26
2019-01-15T01:23:50.624Z,1012.25
2019-01-15T01:24:50.590Z,1012.25
2019-01-15T01:25:50.543Z,1012.23
2019-01-15T01:26:50.507Z,1012.25
2019-01-15T01:27:50.470Z,1012.22
2019-01-15T01:28:50.434Z,1012.22
2019-01-15T01:29:50.391Z,1012.19
2019-01-15T01:30:50.359Z,1012.18
2019-01-15T01:31:50.311Z,1012.16
2019-01-15T01:32:50.291Z,1012.17
2019-01-15T01:33:50.235Z,1012.11
2019-01-15T01:34:50.207Z,1012.10
2019-01-15T01:35:50.165Z,1012.07
2019-01-15T01:36:50.116Z,1012.09
2019-01-15T01:37:50.102Z,1012.10
2019-01-15T01:38:50.060Z,1012.13
2019-01-15T01:39:50.008Z,1012.15
2019-01-15T01:40:49.971Z,1012.18
2019-01-15T01:41:49.932Z,1012.20
2019-01-15T01:42:49.892Z,1012.21
2019-01-15T01:43:49.850Z,1012.25
2019-01-15T01:44:49.815Z,1012.26
2019-01-15T01:45:49.771Z,1012.29
2019-01-15T01:46:49.747Z,1012.28
2019-01-15T01:47:49.695Z,1012.29
2019-01-15T01:48:49.663Z,1012.29
2019-01-15T01:49:49.630Z,1012.31
2019-01-15T01:50:49.592Z,1012.27
2019-01-15T01:51:49.546Z,1012.28
2019-01-15T01:52:49.513Z,1012.25
2019-01-15T01:53:49.483Z,1012.25
2019-01-15T01:54:49.436Z,1012.23
2019-01-15T01:55:49.396Z,1012.19
2019-01-15T01:56:49.357Z,1012.19
2019-01-15T01:57:49.315Z,1012.20
2019-01-15T01:58:49.291Z,1012.15
2019-01-15T01:59:49.243Z,1012.20
2019-01-15T02:00:49.203Z,1012.22
2019-01-15T02:01:49.163Z,1012.25
2019-01-15T02:02:49.132Z,1012.26
2019-01-15T02:03:49.086Z,1012.28
2019-01-15T02:04:49.061Z,1012.23
2019-01-15T02:05:49.029Z,1012.31
2019-01-15T02:06:48.966Z,1012.28
2019-01-15T02:07:48.937Z,1012.31
2019-01-15T02:08:48.897Z,1012.32
2019-01-15T02:09:48.862Z,1012.33
2019-01-15T02:10:48.814Z,1012.35
2019-01-15T02:11:48.789Z,1012.36
2019-01-15T02:12:48.744Z,1012.39
2019-01-15T02:13:48.707Z,1012.38
2019-01-15T02:14:48.659Z,1012.37
2019-01-15T02:15:48.633Z,1012.36
2019-01-15T02:16:48.593Z,1012.35
2019-01-15T02:17:48.552Z,1012.34
2019-01-15T02:18:48.512Z,1012.32
2019-01-15T02:19:48.482Z,1012.31
2019-01-15T02:20:48.440Z,1012.30
2019-01-15T02:21:48.402Z,1012.34
2019-01-15T02:22:48.362Z,1012.38
2019-01-15T02:23:48.329Z,1012.35
2019-01-15T02:24:48.284Z,1012.31
2019-01-15T02:25:48.259Z,1012.33
2019-01-15T02:26:48.212Z,1012.37
2019-01-15T02:27:48.181Z,1012.34
2019-01-15T02:28:48.147Z,1012.33
2019-01-15T02:29:48.094Z,1012.35
2019-01-15T02:30:48.062Z,1012.29
2019-01-15T02:31:48.022Z,1012.30
2019-01-15T02:32:47.982Z,1012.26
2019-01-15T02:33:47.948Z,1012.27
2019-01-15T02:34:47.937Z,1012.24
2019-01-15T02:35:47.863Z,1012.28
2019-01-15T02:36:47.827Z,1012.31
2019-01-15T02:37:47.789Z,1012.32
2019-01-15T02:38:47.761Z,1012.29
2019-01-15T02:39:47.715Z,1012.24
2019-01-15T02:40:47.771Z,1012.23
2019-01-15T02:41:47.657Z,1012.18
2019-01-15T02:42:47.610Z,1012.15
2019-01-15T02:43:47.564Z,1012.13
2019-01-15T02:44:47.535Z,1012.14
2019-01-15T02:45:47.496Z,1012.19
2019-01-15T02:46:47.450Z,1012.16
2019-01-15T02:47:47.410Z,1012.24
2019-01-15T02:48:47.374Z,1012.25
2019-01-15T02:49:47.346Z,1012.27
2019-01-15T02:50:47.310Z,1012.28
2019-01-15T02:51:47.265Z,1012.24
2019-01-15T02:52:47.224Z,1012.24
2019-01-15T02:53:47.188Z,1012.26
2019-01-15T02:54:47.152Z,1012.26
2019-01-15T02:55:47.109Z,1012.24
2019-01-15T02:56:47.076Z,1012.29
2019-01-15T02:57:47.041Z,1012.23
2019-01-15T02:58:46.997Z,1012.20
2019-01-15T02:59:46.959Z,1012.21
2019-01-15T03:00:46.937Z,1012.22
2019-01-15T03:01:46.891Z,1012.26
2019-01-15T03:02:46.850Z,1012.26
2019-01-15T03:03:46.805Z,1012.28
2019-01-15T03:04:46.764Z,1012.26
2019-01-15T03:05:46.730Z,1012.28
2019-01-15T03:06:46.696Z,1012.27
2019-01-15T03:07:46.657Z,1012.20
2019-01-15T03:08:46.612Z,1012.20
2019-01-15T03:09:46.582Z,1012.22
2019-01-15T03:10:46.546Z,1012.21
2019-01-15T03:11:46.507Z,1012.20
2019-01-15T03:12:54.405Z,1012.21
2019-01-15T03:13:46.440Z,1012.22
2019-01-15T03:14:46.391Z,1012.22
2019-01-15T03:15:46.347Z,1012.20
2019-01-15T03:16:46.319Z,1012.19
2019-01-15T03:17:46.288Z,1012.18
2019-01-15T03:18:47.747Z,1012.19
2019-01-15T03:19:46.209Z,1012.13
2019-01-15T03:20:54.819Z,1012.11
2019-01-15T03:22:50.570Z,1012.00
2019-01-15T03:23:50.504Z,1012.00
2019-01-15T03:24:50.466Z,1011.96
2019-01-15T03:25:50.441Z,1011.99
2019-01-15T03:26:50.391Z,1011.93
2019-01-15T03:27:50.373Z,1011.95
2019-01-15T03:28:50.331Z,1011.94
2019-01-15T03:29:50.283Z,1011.89
2019-01-15T03:30:50.245Z,1011.95
2019-01-15T03:31:50.199Z,1011.91
2019-01-15T03:32:50.161Z,1011.89
2019-01-15T03:33:50.127Z,1011.83
2019-01-15T03:34:50.086Z,1011.82
2019-01-15T03:35:50.132Z,1011.78
2019-01-15T03:36:50.013Z,1011.80
2019-01-15T03:37:50.027Z,1011.75
2019-01-15T03:38:49.936Z,1011.80
2019-01-15T03:39:49.900Z,1011.77
2019-01-15T03:40:49.846Z,1011.76
2019-01-15T03:41:49.930Z,1011.75
2019-01-15T03:42:49.801Z,1011.74
2019-01-15T03:43:49.740Z,1011.75
2019-01-15T03:44:49.711Z,1011.75
2019-01-15T03:45:49.665Z,1011.75
2019-01-15T03:46:49.632Z,1011.77
2019-01-15T03:47:49.592Z,1011.78
2019-01-15T03:48:49.563Z,1011.76
2019-01-15T03:49:49.526Z,1011.79
2019-01-15T03:50:49.477Z,1011.76
2019-01-15T03:51:49.442Z,1011.75
2019-01-15T03:52:49.404Z,1011.77
2019-01-15T03:53:49.366Z,1011.77
2019-01-15T03:54:49.337Z,1011.77
2019-01-15T03:55:49.293Z,1011.75
2019-01-15T03:56:49.251Z,1011.76
2019-01-15T03:57:49.211Z,1011.78
2019-01-15T03:58:49.180Z,1011.73
2019-01-15T03:59:49.159Z,1011.77
2019-01-15T04:00:49.099Z,1011.81
2019-01-15T04:01:49.069Z,1011.81
2019-01-15T04:02:49.025Z,1011.80
2019-01-15T04:03:49.008Z,1011.80
2019-01-15T04:04:48.957Z,1011.75
2019-01-15T04:05:48.913Z,1011.71
2019-01-15T04:06:48.878Z,1011.76
2019-01-15T04:07:48.840Z,1011.75
2019-01-15T04:08:48.805Z,1011.76
2019-01-15T04:09:48.764Z,1011.76
2019-01-15T04:10:48.720Z,1011.74
2019-01-15T04:11:48.697Z,1011.76
2019-01-15T04:12:48.658Z,1011.70
2019-01-15T04:13:48.609Z,1011.63
2019-01-15T04:14:48.574Z,1011.64
2019-01-15T04:15:48.537Z,1011.62
2019-01-15T04:16:48.490Z,1011.63
2019-01-15T04:17:48.463Z,1011.60
2019-01-15T04:18:48.440Z,1011.62
2019-01-15T04:19:48.379Z,1011.60
2019-01-15T04:20:48.340Z,1011.58
2019-01-15T04:21:48.325Z,1011.58
2019-01-15T04:22:48.283Z,1011.60
2019-01-15T04:23:48.240Z,1011.58
2019-01-15T04:24:48.195Z,1011.54
2019-01-15T04:25:48.158Z,1011.57
2019-01-15T04:26:48.115Z,1011.59
2019-01-15T04:27:48.083Z,1011.54
2019-01-15T04:28:48.044Z,1011.55
2019-01-15T04:29:48.007Z,1011.57
2019-01-15T04:30:47.974Z,1011.61
2019-01-15T04:31:47.928Z,1011.56
2019-01-15T04:32:47.890Z,1011.56
2019-01-15T04:33:47.848Z,1011.54
2019-01-15T04:34:49.223Z,1011.51
2019-01-15T04:35:47.784Z,1011.53
2019-01-15T04:36:47.748Z,1011.53
2019-01-15T04:37:47.719Z,1011.52
2019-01-15T04:38:47.663Z,1011.56
2019-01-15T04:39:47.631Z,1011.59
2019-01-15T04:40:47.586Z,1011.55
2019-01-15T04:41:47.554Z,1011.54
2019-01-15T04:42:47.519Z,1011.51
2019-01-15T04:43:47.478Z,1011.50
2019-01-15T04:44:47.431Z,1011.49
2019-01-15T04:45:47.419Z,1011.52
2019-01-15T04:46:47.366Z,1011.47
2019-01-15T04:47:47.368Z,1011.48
2019-01-15T04:48:47.290Z,1011.46
2019-01-15T04:49:47.255Z,1011.46
2019-01-15T04:50:47.211Z,1011.45
2019-01-15T04:51:47.176Z,1011.46
2019-01-15T04:52:47.136Z,1011.49
2019-01-15T04:53:47.092Z,1011.50
2019-01-15T04:54:47.056Z,1011.44
2019-01-15T04:55:47.026Z,1011.42
2019-01-15T04:56:46.985Z,1011.39
2019-01-15T04:57:46.946Z,1011.40
2019-01-15T04:58:46.907Z,1011.41
2019-01-15T04:59:46.875Z,1011.40
2019-01-15T05:00:46.834Z,1011.36
2019-01-15T05:01:46.806Z,1011.39
2019-01-15T05:02:46.766Z,1011.38
2019-01-15T05:03:46.712Z,1011.37
2019-01-15T05:04:46.691Z,1011.37
2019-01-15T05:05:46.650Z,1011.32
2019-01-15T05:06:46.607Z,1011.33
2019-01-15T05:07:46.571Z,1011.28
2019-01-15T05:08:46.531Z,1011.27
2019-01-15T05:09:46.496Z,1011.23
2019-01-15T05:10:46.465Z,1011.24
2019-01-15T05:11:46.421Z,1011.20
2019-01-15T05:12:46.399Z,1011.19
2019-01-15T05:13:46.350Z,1011.24
2019-01-15T05:14:46.316Z,1011.19
2019-01-15T05:15:46.272Z,1011.21
2019-01-15T05:16:46.264Z,1011.18
2019-01-15T05:17:46.197Z,1011.18
2019-01-15T05:18:46.150Z,1011.17
2019-01-15T05:19:46.117Z,1011.17
2019-01-15T05:20:46.083Z,1011.13
2019-01-15T05:21:46.041Z,1011.08
2019-01-15T05:22:46.016Z,1011.11
2019-01-15T05:23:45.972Z,1011.13
2019-01-15T05:24:45.942Z,1011.12
2019-01-15T05:25:45.889Z,1011.13
2019-01-15T05:26:45.853Z,1011.10
2019-01-15T05:27:45.819Z,1011.11
2019-01-15T05:28:45.780Z,1011.06
2019-01-15T05:29:45.752Z,1011.03
2019-01-15T05:30:45.706Z,1010.99
2019-01-15T05:31:45.667Z,1011.07
2019-01-15T05:32:45.641Z,1011.02
2019-01-15T05:33:45.589Z,1011.00
2019-01-15T05:34:45.555Z,1011.04
2019-01-15T05:35:45.511Z,1011.04
2019-01-15T05:36:45.479Z,1011.05
2019-01-15T05:37:45.444Z,1011.04
2019-01-15T05:38:45.412Z,1011.03
2019-01-15T05:39:45.368Z,1011.00
2019-01-15T05:40:45.325Z,1010.99
2019-01-15T05:41:45.283Z,1011.00
2019-01-15T05:42:45.245Z,1011.04
2019-01-15T05:43:45.210Z,1011.06
2019-01-15T05:44:45.168Z,1011.08
2019-01-15T05:45:45.138Z,1011.06
2019-01-15T05:46:45.112Z,1011.08
2019-01-15T05:47:45.066Z,1011.09
2019-01-15T05:48:45.026Z,1011.09
2019-01-15T05:49:44.976Z,1011.04
2019-01-15T05:50:44.943Z,1011.02
2019-01-15T05:51:44.916Z,1011.03
2019-01-15T05:52:44.873Z,1011.05
2019-01-15T05:53:44.837Z,1010.99
2019-01-15T05:54:44.798Z,1010.98
2019-01-15T05:55:44.758Z,1010.99
2019-01-15T05:56:44.733Z,1010.96
2019-01-15T05:57:44.698Z,1010.89
2019-01-15T05:58:44.653Z,1010.88
2019-01-15T05:59:44.609Z,1010.88
2019-01-15T06:00:44.574Z,1010.93
2019-01-15T06:01:44.538Z,1010.94
2019-01-15T06:02:44.513Z,1010.92
2019-01-15T06:03:44.458Z,1011.03
2019-01-15T06:04:44.424Z,1011.07
2019-01-15T06:05:44.385Z,1011.05
2019-01-15T06:06:44.352Z,1011.03
2019-01-15T06:07:44.313Z,1011.06
2019-01-15T06:08:44.270Z,1011.04
2019-01-15T06:09:44.249Z,1011.07
2019-01-15T06:10:44.195Z,1011.03
2019-01-15T06:11:44.154Z,1011.05
2019-01-15T06:12:44.115Z,1011.01
2019-01-15T06:13:44.073Z,1011.03
2019-01-15T06:14:44.035Z,1010.97
2019-01-15T06:15:44.006Z,1010.93
2019-01-15T06:16:43.979Z,1010.95
2019-01-15T06:17:43.931Z,1010.94
2019-01-15T06:18:43.898Z,1010.93
2019-01-15T06:19:43.850Z,1010.91
2019-01-15T06:20:43.814Z,1010.95
2019-01-15T06:21:43.768Z,1010.96
2019-01-15T06:22:43.741Z,1010.94
2019-01-15T06:23:43.710Z,1010.95
2019-01-15T06:24:43.661Z,1010.94
2019-01-15T06:25:43.626Z,1010.92
2019-01-15T06:26:43.585Z,1010.95
2019-01-15T06:27:43.546Z,1010.86
2019-01-15T06:28:43.509Z,1010.89
2019-01-15T06:29:43.475Z,1010.82
2019-01-15T06:30:43.440Z,1010.82
2019-01-15T06:31:43.409Z,1010.81
2019-01-15T06:32:43.365Z,1010.76
2019-01-15T06:33:43.333Z,1010.80
2019-01-15T06:34:43.286Z,1010.75
2019-01-15T06:35:43.253Z,1010.73
2019-01-15T06:36:43.209Z,1010.74
2019-01-15T06:37:43.173Z,1010.73
2019-01-15T06:38:43.142Z,1010.75
2019-01-15T06:39:43.106Z,1010.71
2019-01-15T06:40:43.059Z,1010.69
2019-01-15T06:41:43.021Z,1010.72
2019-01-15T06:42:42.990Z,1010.76
2019-01-15T06:43:49.736Z,1010.71
2019-01-15T06:44:42.915Z,1010.71
2019-01-15T06:45:42.880Z,1010.66
2019-01-15T06:46:42.827Z,1010.66
2019-01-15T06:47:42.791Z,1010.69
2019-01-15T06:48:42.757Z,1010.62
2019-01-15T06:49:42.717Z,1010.68
2019-01-15T06:50:42.683Z,1010.65
2019-01-15T06:51:42.649Z,1010.65
2019-01-15T06:52:42.618Z,1010.65
2019-01-15T06:53:42.592Z,1010.61
2019-01-15T06:54:42.557Z,1010.59
2019-01-15T06:55:42.505Z,1010.64
2019-01-15T06:56:42.467Z,1010.61
2019-01-15T06:57:42.423Z,1010.61
2019-01-15T06:58:42.388Z,1010.62
2019-01-15T06:59:42.349Z,1010.62
2019-01-15T07:00:42.317Z,1010.62
2019-01-15T07:01:42.272Z,1010.64
2019-01-15T07:02:42.237Z,1010.66
2019-01-15T07:03:42.192Z,1010.69
2019-01-15T07:04:43.993Z,1010.69
2019-01-15T07:05:42.128Z,1010.70
2019-01-15T07:06:42.083Z,1010.68
2019-01-15T07:07:42.075Z,1010.69
2019-01-15T07:08:42.011Z,1010.71
2019-01-15T07:09:41.981Z,1010.70
2019-01-15T07:10:41.938Z,1010.67
2019-01-15T07:11:41.897Z,1010.65
2019-01-15T07:12:41.858Z,1010.66
2019-01-15T07:13:41.829Z,1010.65
2019-01-15T07:14:41.785Z,1010.67
2019-01-15T07:15:41.747Z,1010.72
2019-01-15T07:16:41.721Z,1010.66
2019-01-15T07:17:41.676Z,1010.71
2019-01-15T07:18:41.629Z,1010.70
2019-01-15T07:19:41.603Z,1010.75
2019-01-15T07:20:41.561Z,1010.72
2019-01-15T07:21:41.519Z,1010.72
2019-01-15T07:22:41.499Z,1010.71
2019-01-15T07:23:41.462Z,1010.71
2019-01-15T07:24:41.406Z,1010.73
2019-01-15T07:25:41.377Z,1010.70
2019-01-15T07:26:41.332Z,1010.73
2019-01-15T07:27:49.946Z,1010.69
2019-01-15T07:29:45.708Z,1010.74
2019-01-15T07:30:45.648Z,1010.71
2019-01-15T07:31:45.617Z,1010.74
2019-01-15T07:32:45.572Z,1010.75
2019-01-15T07:33:45.533Z,1010.78
2019-01-15T07:34:45.498Z,1010.84
2019-01-15T07:35:45.457Z,1010.78
2019-01-15T07:36:45.432Z,1010.78
2019-01-15T07:37:45.394Z,1010.77
2019-01-15T07:38:45.352Z,1010.79
2019-01-15T07:39:45.315Z,1010.78
2019-01-15T07:40:45.274Z,1010.78
2019-01-15T07:41:45.225Z,1010.80
2019-01-15T07:42:45.192Z,1010.82
2019-01-15T07:43:45.161Z,1010.84
2019-01-15T07:44:45.110Z,1010.84
2019-01-15T07:45:45.150Z,1010.87
2019-01-15T07:46:45.044Z,1010.89
2019-01-15T07:47:45.007Z,1010.94
2019-01-15T07:48:44.963Z,1010.97
2019-01-15T07:49:44.938Z,1010.98
2019-01-15T07:50:44.907Z,1010.96
2019-01-15T07:51:44.858Z,1011.05
2019-01-15T07:52:44.844Z,1011.05
2019-01-15T07:53:44.784Z,1011.10
2019-01-15T07:54:44.752Z,1011.12
2019-01-15T07:55:44.700Z,1011.08
2019-01-15T07:56:44.680Z,1011.04
2019-01-15T07:57:44.639Z,1010.99
2019-01-15T07:58:44.601Z,1010.96
2019-01-15T07:59:44.563Z,1010.94
2019-01-15T08:00:44.526Z,1010.95
2019-01-15T08:01:44.485Z,1010.98
2019-01-15T08:02:44.449Z,1010.95
2019-01-15T08:03:44.419Z,1010.99
2019-01-15T08:04:44.380Z,1010.99
2019-01-15T08:05:44.334Z,1011.00
2019-01-15T08:06:44.313Z,1010.91
2019-01-15T08:07:44.268Z,1010.88
2019-01-15T08:08:44.225Z,1010.90
2019-01-15T08:09:44.191Z,1010.86
2019-01-15T08:10:44.145Z,1010.93
2019-01-15T08:11:44.116Z,1010.90
2019-01-15T08:12:44.081Z,1010.89
2019-01-15T08:13:44.045Z,1010.95
2019-01-15T08:14:44.004Z,1010.93
2019-01-15T08:15:43.965Z,1010.95
2019-01-15T08:16:43.926Z,1010.93
2019-01-15T08:17:43.885Z,1010.95
2019-01-15T08:18:43.850Z,1010.92
2019-01-15T08:19:43.821Z,1010.94
2019-01-15T08:20:43.776Z,1010.90
2019-01-15T08:21:43.737Z,1010.92
2019-01-15T08:22:43.708Z,1010.89
2019-01-15T08:23:43.660Z,1010.86
2019-01-15T08:24:43.621Z,1010.82
2019-01-15T08:25:43.591Z,1010.76
2019-01-15T08:26:43.556Z,1010.75
2019-01-15T08:27:43.515Z,1010.70
2019-01-15T08:28:43.479Z,1010.72
2019-01-15T08:29:43.440Z,1010.78
2019-01-15T08:30:43.415Z,1010.73
2019-01-15T08:31:43.365Z,1010.74
2019-01-15T08:32:43.326Z,1010.74
2019-01-15T08:33:43.300Z,1010.76
2019-01-15T08:34:43.261Z,1010.75
2019-01-15T08:35:43.231Z,1010.79
2019-01-15T08:36:43.187Z,1010.81
2019-01-15T08:37:43.142Z,1010.77
2019-01-15T08:38:43.110Z,1010.80
2019-01-15T08:39:43.066Z,1010.75
2019-01-15T08:40:43.036Z,1010.72
2019-01-15T08:41:43.012Z,1010.72
2019-01-15T08:42:42.975Z,1010.65
2019-01-15T08:43:42.920Z,1010.68
2019-01-15T08:44:42.888Z,1010.70
2019-01-15T08:45:42.853Z,1010.69
2019-01-15T08:46:42.817Z,1010.77
2019-01-15T08:47:42.765Z,1010.81
2019-01-15T08:48:42.752Z,1010.79
2019-01-15T08:49:42.701Z,1010.76
2019-01-15T08:50:42.666Z,1010.84
2019-01-15T08:51:42.648Z,1010.79
2019-01-15T08:52:42.591Z,1010.78
2019-01-15T08:53:42.546Z,1010.74
2019-01-15T08:54:42.522Z,1010.76
2019-01-15T08:55:42.497Z,1010.75
2019-01-15T08:56:42.438Z,1010.78
2019-01-15T08:57:42.399Z,1010.77
2019-01-15T08:58:42.373Z,1010.81
2019-01-15T08:59:42.334Z,1010.76
2019-01-15T09:00:42.296Z,1010.77
2019-01-15T09:01:42.267Z,1010.77
2019-01-15T09:02:42.234Z,1010.72
2019-01-15T09:03:42.182Z,1010.70
2019-01-15T09:04:42.147Z,1010.70
2019-01-15T09:05:42.206Z,1010.70
2019-01-15T09:06:42.082Z,1010.72
2019-01-15T09:07:42.036Z,1010.72
2019-01-15T09:08:41.999Z,1010.75
2019-01-15T09:09:41.969Z,1010.73
2019-01-15T09:10:41.937Z,1010.78
2019-01-15T09:11:41.887Z,1010.75
2019-01-15T09:12:41.849Z,1010.76
2019-01-15T09:13:41.818Z,1010.76
2019-01-15T09:14:41.777Z,1010.77
2019-01-15T09:15:41.748Z,1010.72
2019-01-15T09:16:41.710Z,1010.72
2019-01-15T09:17:41.671Z,1010.76
2019-01-15T09:18:41.629Z,1010.77
2019-01-15T09:19:41.588Z,1010.75
2019-01-15T09:20:41.553Z,1010.76
2019-01-15T09:21:41.538Z,1010.72
2019-01-15T09:22:41.492Z,1010.71
2019-01-15T09:23:41.449Z,1010.76
2019-01-15T09:24:41.420Z,1010.73
2019-01-15T09:25:41.374Z,1010.73
2019-01-15T09:26:41.338Z,1010.80
2019-01-15T09:27:41.310Z,1010.79
2019-01-15T09:28:41.285Z,1010.81
2019-01-15T09:29:41.233Z,1010.81
2019-01-15T09:30:41.199Z,1010.84
2019-01-15T09:31:41.164Z,1010.87
2019-01-15T09:32:41.120Z,1010.86
2019-01-15T09:33:41.105Z,1010.88
2019-01-15T09:34:41.059Z,1010.88
2019-01-15T09:35:41.023Z,1010.90
2019-01-15T09:36:40.985Z,1010.93
2019-01-15T09:37:40.943Z,1010.91
2019-01-15T09:38:40.900Z,1010.94
2019-01-15T09:39:40.869Z,1010.94
2019-01-15T09:40:40.849Z,1010.95
2019-01-15T09:41:40.800Z,1010.89
2019-01-15T09:42:40.756Z,1010.91
2019-01-15T09:43:40.718Z,1010.84
2019-01-15T09:44:40.685Z,1010.83
2019-01-15T09:45:40.650Z,1010.83
2019-01-15T09:46:40.624Z,1010.82
2019-01-15T09:47:40.575Z,1010.86
2019-01-15T09:48:40.534Z,1010.81
2019-01-15T09:49:40.508Z,1010.86
2019-01-15T09:50:40.476Z,1010.84
2019-01-15T09:51:40.441Z,1010.85
2019-01-15T09:52:40.416Z,1010.84
2019-01-15T09:53:40.369Z,1010.83
2019-01-15T09:54:40.331Z,1010.83
2019-01-15T09:55:40.296Z,1010.83
2019-01-15T09:56:40.496Z,1010.83
2019-01-15T09:57:40.261Z,1010.90
2019-01-15T09:58:40.180Z,1010.81
2019-01-15T09:59:40.166Z,1010.89
2019-01-15T10:00:40.152Z,1010.91
2019-01-15T10:01:40.090Z,1010.92
2019-01-15T10:02:40.050Z,1010.84
2019-01-15T10:03:40.010Z,1010.88
2019-01-15T10:04:39.994Z,1010.92
2019-01-15T10:05:39.942Z,1010.91
2019-01-15T10:06:39.917Z,1010.88
2019-01-15T10:07:39.869Z,1010.91
2019-01-15T10:08:39.850Z,1010.86
2019-01-15T10:09:39.798Z,1010.89
2019-01-15T10:10:39.762Z,1010.91
2019-01-15T10:11:39.731Z,1010.83
2019-01-15T10:12:39.699Z,1010.85
2019-01-15T10:13:39.661Z,1010.83
2019-01-15T10:14:41.370Z,1010.85
2019-01-15T10:15:39.598Z,1010.76
2019-01-15T10:16:39.551Z,1010.92
2019-01-15T10:17:39.511Z,1010.84
2019-01-15T10:18:39.476Z,1010.82
2019-01-15T10:19:39.446Z,1010.87
2019-01-15T10:20:39.405Z,1010.93
2019-01-15T10:21:39.868Z,1010.91
2019-01-15T10:22:39.337Z,1010.81
2019-01-15T10:23:39.307Z,1010.82
2019-01-15T10:24:39.272Z,1010.77
2019-01-15T10:25:39.227Z,1010.78
2019-01-15T10:26:39.208Z,1010.78
2019-01-15T10:27:39.157Z,1010.74
2019-01-15T10:28:39.129Z,1010.71
2019-01-15T10:29:39.091Z,1010.78
2019-01-15T10:30:39.043Z,1010.73
2019-01-15T10:31:39.048Z,1010.72
2019-01-15T10:32:38.982Z,1010.73
2019-01-15T10:33:38.942Z,1010.70
2019-01-15T10:34:38.919Z,1010.72
2019-01-15T10:35:38.871Z,1010.63
2019-01-15T10:36:38.841Z,1010.63
2019-01-15T10:37:38.811Z,1010.69
2019-01-15T10:38:38.779Z,1010.67
2019-01-15T10:39:38.738Z,1010.61
2019-01-15T10:40:38.698Z,1010.65
2019-01-15T10:41:38.669Z,1010.64
2019-01-15T10:42:38.632Z,1010.59
2019-01-15T10:43:38.596Z,1010.69
2019-01-15T10:44:38.556Z,1010.61
2019-01-15T10:45:38.524Z,1010.62
2019-01-15T10:46:38.492Z,1010.57
2019-01-15T10:47:38.458Z,1010.58
2019-01-15T10:48:38.428Z,1010.61
2019-01-15T10:49:38.403Z,1010.60
2019-01-15T10:50:38.348Z,1010.63
2019-01-15T10:51:38.310Z,1010.53
2019-01-15T10:52:38.288Z,1010.53
2019-01-15T10:53:38.270Z,1010.54
2019-01-15T10:54:38.208Z,1010.51
2019-01-15T10:55:38.183Z,1010.52
2019-01-15T10:56:38.139Z,1010.48
2019-01-15T10:57:38.103Z,1010.53
2019-01-15T10:58:38.069Z,1010.49
2019-01-15T10:59:38.057Z,1010.45
2019-01-15T11:00:38.002Z,1010.48
2019-01-15T11:01:37.968Z,1010.47
2019-01-15T11:02:37.934Z,1010.38
2019-01-15T11:03:37.897Z,1010.38
2019-01-15T11:04:37.863Z,1010.41
2019-01-15T11:05:37.828Z,1010.36
2019-01-15T11:06:37.784Z,1010.36
2019-01-15T11:07:37.757Z,1010.36
2019-01-15T11:08:37.776Z,1010.34
2019-01-15T11:09:37.678Z,1010.34
2019-01-15T11:10:37.652Z,1010.36
2019-01-15T11:11:37.618Z,1010.36
2019-01-15T11:12:37.578Z,1010.33
2019-01-15T11:13:37.544Z,1010.38
2019-01-15T11:14:37.503Z,1010.43
2019-01-15T11:15:43.168Z,1010.39
2019-01-15T11:16:37.444Z,1010.34
2019-01-15T11:17:37.399Z,1010.31
2019-01-15T11:18:37.363Z,1010.34
2019-01-15T11:19:37.338Z,1010.30
2019-01-15T11:20:37.294Z,1010.32
2019-01-15T11:21:37.269Z,1010.34
2019-01-15T11:22:37.219Z,1010.33
2019-01-15T11:23:37.195Z,1010.35
2019-01-15T11:24:37.159Z,1010.35
2019-01-15T11:25:37.115Z,1010.36
2019-01-15T11:26:37.085Z,1010.35
2019-01-15T11:27:37.046Z,1010.32
2019-01-15T11:28:37.011Z,1010.34
2019-01-15T11:29:36.989Z,1010.33
2019-01-15T11:30:36.943Z,1010.30
2019-01-15T11:31:36.911Z,1010.25
2019-01-15T11:32:36.889Z,1010.25
2019-01-15T11:33:36.840Z,1010.21
2019-01-15T11:34:36.805Z,1010.19
2019-01-15T11:35:36.761Z,1010.17
2019-01-15T11:36:45.383Z,1010.19
2019-01-15T11:38:41.149Z,1010.19
2019-01-15T11:39:41.086Z,1010.24
2019-01-15T11:40:41.050Z,1010.19
2019-01-15T11:41:41.019Z,1010.16
2019-01-15T11:42:40.992Z,1010.16
2019-01-15T11:43:40.955Z,1010.21
2019-01-15T11:44:40.911Z,1010.19
2019-01-15T11:45:40.875Z,1010.20
2019-01-15T11:46:40.836Z,1010.20
2019-01-15T11:47:40.805Z,1010.23
2019-01-15T11:48:40.776Z,1010.20
2019-01-15T11:49:40.742Z,1010.15
2019-01-15T11:50:40.711Z,1010.19
2019-01-15T11:51:40.667Z,1010.21
2019-01-15T11:52:40.641Z,1010.22
2019-01-15T11:53:40.620Z,1010.21
2019-01-15T11:54:40.567Z,1010.21
2019-01-15T11:55:40.540Z,1010.20
2019-01-15T11:56:40.487Z,1010.13
2019-01-15T11:57:40.455Z,1010.12
2019-01-15T11:58:40.421Z,1010.17
2019-01-15T11:59:40.381Z,1010.17
2019-01-15T12:00:40.351Z,1010.10
2019-01-15T12:01:40.319Z,1010.15
2019-01-15T12:02:40.272Z,1010.16
2019-01-15T12:03:40.242Z,1010.18
2019-01-15T12:04:40.207Z,1010.16
2019-01-15T12:05:40.173Z,1010.14
2019-01-15T12:06:40.135Z,1010.17
2019-01-15T12:07:40.096Z,1010.14
2019-01-15T12:08:40.056Z,1010.11